createdAt,value
2019-03-17T00:01:59.712Z,55.80
2019-03-17T00:04:04.480Z,55.80
2019-03-17T00:06:09.434Z,55.90
2019-03-17T00:08:14.436Z,55.80
2019-03-17T00:10:20.336Z,55.80
2019-03-17T00:12:25.296Z,55.90
2019-03-17T00:14:30.220Z,55.90
2019-03-17T00:16:35.057Z,55.90
2019-03-17T00:18:39.912Z,55.80
2019-03-17T00:20:44.736Z,55.80
2019-03-17T00:22:49.855Z,55.80
2019-03-17T00:24:54.766Z,55.80
2019-03-17T00:26:59.639Z,55.90
2019-03-17T00:29:04.514Z,55.90
2019-03-17T00:31:09.298Z,56.00
2019-03-17T00:33:14.046Z,56.10
2019-03-17T00:35:19.024Z,56.00
2019-03-17T00:37:23.853Z,56.10
2019-03-17T00:39:28.976Z,56.10
2019-03-17T00:41:33.810Z,56.20
2019-03-17T00:43:39.424Z,56.10
2019-03-17T00:45:44.263Z,56.10
2019-03-17T00:47:49.196Z,56.10
2019-03-17T00:49:54.018Z,56.20
2019-03-17T00:51:59.081Z,56.20
2019-03-17T00:54:04.981Z,56.30
2019-03-17T00:56:09.936Z,56.20
2019-03-17T00:58:14.755Z,56.20
2019-03-17T01:00:19.777Z,56.80
2019-03-17T01:02:24.714Z,56.30
2019-03-17T01:04:30.675Z,56.30
2019-03-17T01:06:35.693Z,56.30
2019-03-17T01:08:40.514Z,56.30
2019-03-17T01:10:45.475Z,56.40
2019-03-17T01:12:50.308Z,56.50
2019-03-17T01:14:55.021Z,56.40
2019-03-17T01:16:59.935Z,56.40
2019-03-17T01:19:04.754Z,56.40
2019-03-17T01:21:09.598Z,56.40
2019-03-17T01:23:16.222Z,56.50
2019-03-17T01:25:21.102Z,56.60
2019-03-17T01:27:25.924Z,56.50
2019-03-17T01:29:30.836Z,56.60
2019-03-17T01:31:36.077Z,56.60
2019-03-17T01:33:42.503Z,56.50
2019-03-17T01:35:47.279Z,56.60
2019-03-17T01:37:52.096Z,56.50
2019-03-17T01:39:56.998Z,56.60
2019-03-17T01:42:02.056Z,56.50
2019-03-17T01:44:06.790Z,56.50
2019-03-17T01:46:11.697Z,56.40
2019-03-17T01:48:16.494Z,56.40
2019-03-17T01:50:21.256Z,55.90
2019-03-17T01:52:26.103Z,55.90
2019-03-17T01:54:32.114Z,55.80
2019-03-17T01:56:37.154Z,55.70
2019-03-17T01:58:42.285Z,55.60
2019-03-17T02:00:47.096Z,55.40
2019-03-17T02:02:51.849Z,55.50
2019-03-17T02:04:56.666Z,55.40
2019-03-17T02:07:01.401Z,55.40
2019-03-17T02:09:07.646Z,55.30
2019-03-17T02:11:12.422Z,55.30
2019-03-17T02:13:17.617Z,55.30
2019-03-17T02:15:22.475Z,55.20
2019-03-17T02:17:27.255Z,55.10
2019-03-17T02:19:32.229Z,55.10
2019-03-17T02:21:37.276Z,55.00
2019-03-17T02:23:42.094Z,55.00
2019-03-17T02:25:47.011Z,54.90
2019-03-17T02:27:51.762Z,54.80
2019-03-17T02:29:56.533Z,54.90
2019-03-17T02:32:01.735Z,54.80
2019-03-17T02:34:06.559Z,55.20
2019-03-17T02:36:11.315Z,54.60
2019-03-17T02:38:16.192Z,54.60
2019-03-17T02:40:21.215Z,54.50
2019-03-17T02:42:26.202Z,54.60
2019-03-17T02:44:31.138Z,54.60
2019-03-17T02:46:36.063Z,54.50
2019-03-17T02:48:40.946Z,54.50
2019-03-17T02:50:45.813Z,54.50
2019-03-17T02:52:50.656Z,54.50
2019-03-17T02:54:55.504Z,54.60
2019-03-17T02:57:00.332Z,54.40
2019-03-17T02:59:05.201Z,54.50
2019-03-17T03:01:11.121Z,54.50
2019-03-17T03:03:15.941Z,54.50
2019-03-17T03:05:20.785Z,54.60
2019-03-17T03:07:25.562Z,54.50
2019-03-17T03:09:30.343Z,54.40
2019-03-17T03:11:35.174Z,54.60
2019-03-17T03:13:40.049Z,54.50
2019-03-17T03:15:44.947Z,54.50
2019-03-17T03:17:49.904Z,54.40
2019-03-17T03:19:54.659Z,54.40
2019-03-17T03:22:00.435Z,54.40
2019-03-17T03:24:05.212Z,54.40
2019-03-17T03:26:10.229Z,54.40
2019-03-17T03:28:15.070Z,54.40
2019-03-17T03:30:19.982Z,54.50
2019-03-17T03:32:24.830Z,54.40
2019-03-17T03:34:29.937Z,54.40
2019-03-17T03:36:34.879Z,54.30
2019-03-17T03:38:39.790Z,54.30
2019-03-17T03:40:44.851Z,54.30
2019-03-17T03:42:49.976Z,54.20
2019-03-17T03:45:06.346Z,54.20
2019-03-17T03:47:12.214Z,54.20
2019-03-17T03:49:17.133Z,54.30
2019-03-17T03:51:21.976Z,54.10
2019-03-17T03:53:26.886Z,54.10
2019-03-17T03:55:31.670Z,54.10
2019-03-17T03:57:36.530Z,54.00
2019-03-17T03:59:41.412Z,54.00
2019-03-17T04:01:46.156Z,54.00
2019-03-17T04:03:50.964Z,54.50
2019-03-17T04:05:55.849Z,53.90
2019-03-17T04:08:00.679Z,53.90
2019-03-17T04:10:06.096Z,53.80
2019-03-17T04:12:10.896Z,53.90
2019-03-17T04:14:15.765Z,53.80
2019-03-17T04:16:20.646Z,53.80
2019-03-17T04:18:25.342Z,53.70
2019-03-17T04:20:30.132Z,53.60
2019-03-17T04:22:35.010Z,53.60
2019-03-17T04:24:39.956Z,53.60
2019-03-17T04:26:44.716Z,53.70
2019-03-17T04:28:49.524Z,53.50
2019-03-17T04:30:54.373Z,53.60
2019-03-17T04:32:59.483Z,53.60
2019-03-17T04:35:04.695Z,53.50
2019-03-17T04:37:09.475Z,53.50
2019-03-17T04:39:14.255Z,53.50
2019-03-17T04:41:19.059Z,54.00
2019-03-17T04:43:23.882Z,53.40
2019-03-17T04:45:28.876Z,53.40
2019-03-17T04:47:33.623Z,53.40
2019-03-17T04:49:38.379Z,53.30
2019-03-17T04:51:43.200Z,53.50
2019-03-17T04:53:47.943Z,53.30
2019-03-17T04:55:52.752Z,53.20
2019-03-17T04:57:57.701Z,53.40
2019-03-17T05:00:02.538Z,53.20
2019-03-17T05:02:07.474Z,53.10
2019-03-17T05:04:12.302Z,53.10
2019-03-17T05:06:17.257Z,53.20
2019-03-17T05:08:22.183Z,53.10
2019-03-17T05:10:27.293Z,53.00
2019-03-17T05:12:32.120Z,52.90
2019-03-17T05:14:36.988Z,53.00
2019-03-17T05:16:41.720Z,53.00
2019-03-17T05:18:46.564Z,53.00
2019-03-17T05:20:51.337Z,52.90
2019-03-17T05:22:56.076Z,53.00
2019-03-17T05:25:00.975Z,53.00
2019-03-17T05:27:05.800Z,52.90
2019-03-17T05:29:10.741Z,52.90
2019-03-17T05:31:15.666Z,52.90
2019-03-17T05:33:20.501Z,52.80
2019-03-17T05:35:25.407Z,52.80
2019-03-17T05:37:30.238Z,52.70
2019-03-17T05:39:35.215Z,52.70
2019-03-17T05:41:40.031Z,52.70
2019-03-17T05:43:44.772Z,52.60
2019-03-17T05:45:49.736Z,52.70
2019-03-17T05:47:54.615Z,52.60
2019-03-17T05:49:59.514Z,52.50
2019-03-17T05:52:04.271Z,52.60
2019-03-17T05:54:09.168Z,52.60
2019-03-17T05:56:13.996Z,52.50
2019-03-17T05:58:19.036Z,52.60
2019-03-17T06:00:23.901Z,52.50
2019-03-17T06:02:30.238Z,52.50
2019-03-17T06:04:35.099Z,52.50
2019-03-17T06:06:39.840Z,52.50
2019-03-17T06:08:44.684Z,52.40
2019-03-17T06:10:52.564Z,52.50
2019-03-17T06:12:57.369Z,52.50
2019-03-17T06:15:02.445Z,52.40
2019-03-17T06:17:07.255Z,52.20
2019-03-17T06:19:12.056Z,52.40
2019-03-17T06:21:17.029Z,52.30
2019-03-17T06:23:21.886Z,52.40
2019-03-17T06:25:26.656Z,52.30
2019-03-17T06:27:33.186Z,52.40
2019-03-17T06:29:39.858Z,52.30
2019-03-17T06:31:44.637Z,52.40
2019-03-17T06:33:49.484Z,52.30
2019-03-17T06:35:54.291Z,52.30
2019-03-17T06:37:59.137Z,52.20
2019-03-17T06:40:04.217Z,52.30
2019-03-17T06:42:09.121Z,52.40
2019-03-17T06:44:14.020Z,52.30
2019-03-17T06:46:19.856Z,52.30
2019-03-17T06:48:24.668Z,52.20
2019-03-17T06:50:29.516Z,52.20
2019-03-17T06:52:34.337Z,52.20
2019-03-17T06:54:39.171Z,52.20
2019-03-17T06:56:44.287Z,52.20
2019-03-17T06:58:49.285Z,52.20
2019-03-17T07:00:55.197Z,52.10
2019-03-17T07:03:00.221Z,52.10
2019-03-17T07:05:05.650Z,52.20
2019-03-17T07:07:13.565Z,52.10
2019-03-17T07:09:18.619Z,52.20
2019-03-17T07:11:23.305Z,52.20
2019-03-17T07:13:29.312Z,52.20
2019-03-17T07:15:34.100Z,52.20
2019-03-17T07:17:40.172Z,52.20
2019-03-17T07:19:45.085Z,52.20
2019-03-17T07:21:49.955Z,52.20
2019-03-17T07:23:54.818Z,52.20
2019-03-17T07:25:59.647Z,52.20
2019-03-17T07:28:05.036Z,52.20
2019-03-17T07:30:11.221Z,52.20
2019-03-17T07:32:16.033Z,52.20
2019-03-17T07:34:20.875Z,52.20
2019-03-17T07:36:26.054Z,52.20
2019-03-17T07:38:30.950Z,52.30
2019-03-17T07:40:36.597Z,52.30
2019-03-17T07:42:42.204Z,52.20
2019-03-17T07:44:47.040Z,52.10
2019-03-17T07:46:54.746Z,52.00
2019-03-17T07:48:59.581Z,51.90
2019-03-17T07:51:05.843Z,51.90
2019-03-17T07:53:11.882Z,51.90
2019-03-17T07:55:18.650Z,51.80
2019-03-17T07:57:25.452Z,51.90
2019-03-17T07:59:32.676Z,51.80
2019-03-17T08:01:48.920Z,51.70
2019-03-17T08:03:54.527Z,51.70
2019-03-17T08:05:59.569Z,51.70
2019-03-17T08:08:09.257Z,51.50
2019-03-17T08:10:13.356Z,51.70
2019-03-17T08:12:20.779Z,51.60
2019-03-17T08:14:35.592Z,51.50
2019-03-17T08:16:48.548Z,51.50
2019-03-17T08:18:55.246Z,51.50
2019-03-17T08:21:00.327Z,51.40
2019-03-17T08:23:05.665Z,51.30
2019-03-17T08:25:10.721Z,51.30
2019-03-17T08:27:17.198Z,51.30
2019-03-17T08:29:22.362Z,51.20
2019-03-17T08:31:27.119Z,51.30
2019-03-17T08:33:32.330Z,51.30
2019-03-17T08:35:37.432Z,51.30
2019-03-17T08:37:42.934Z,51.20
2019-03-17T08:39:47.913Z,51.10
2019-03-17T08:41:54.452Z,51.10
2019-03-17T08:43:59.475Z,51.10
2019-03-17T08:46:04.280Z,51.10
2019-03-17T08:48:22.688Z,51.10
2019-03-17T08:50:31.469Z,51.10
2019-03-17T08:52:36.325Z,50.90
2019-03-17T08:54:47.619Z,51.00
2019-03-17T08:57:18.425Z,50.90
2019-03-17T08:59:39.759Z,50.90
2019-03-17T09:01:52.962Z,50.90
2019-03-17T09:04:00.223Z,51.00
2019-03-17T09:06:04.955Z,50.90
2019-03-17T09:08:09.677Z,51.10
2019-03-17T09:10:25.007Z,51.20
2019-03-17T09:12:30.318Z,51.40
2019-03-17T09:14:35.387Z,51.80
2019-03-17T09:16:40.525Z,51.80
2019-03-17T09:18:45.554Z,52.00
2019-03-17T09:20:50.766Z,51.80
2019-03-17T09:22:55.718Z,51.90
2019-03-17T09:25:00.542Z,51.90
2019-03-17T09:27:05.456Z,52.00
2019-03-17T09:29:10.267Z,52.10
2019-03-17T09:31:15.058Z,52.10
2019-03-17T09:33:21.077Z,52.10
2019-03-17T09:35:26.440Z,52.20
2019-03-17T09:37:31.342Z,52.10
2019-03-17T09:39:36.398Z,52.30
2019-03-17T09:41:41.250Z,52.10
2019-03-17T09:43:46.182Z,52.10
2019-03-17T09:45:52.113Z,52.20
2019-03-17T09:47:56.934Z,52.20
2019-03-17T09:50:01.854Z,52.30
2019-03-17T09:52:06.810Z,52.30
2019-03-17T09:54:11.794Z,52.20
2019-03-17T09:56:51.040Z,52.30
2019-03-17T09:59:01.122Z,52.20
2019-03-17T10:01:05.987Z,52.40
2019-03-17T10:03:11.171Z,52.30
2019-03-17T10:05:16.804Z,52.20
2019-03-17T10:07:21.607Z,52.20
2019-03-17T10:09:26.503Z,52.30
2019-03-17T10:11:31.507Z,52.30
2019-03-17T10:13:36.507Z,52.30
2019-03-17T10:15:41.423Z,52.20
2019-03-17T10:17:46.438Z,52.30
2019-03-17T10:19:52.547Z,52.30
2019-03-17T10:21:57.834Z,52.50
2019-03-17T10:24:03.287Z,52.50
2019-03-17T10:26:09.287Z,52.50
2019-03-17T10:28:14.375Z,52.50
2019-03-17T10:30:19.295Z,52.50
2019-03-17T10:32:24.342Z,52.50
2019-03-17T10:34:29.373Z,52.50
2019-03-17T10:36:34.269Z,52.40
2019-03-17T10:44:57.159Z,52.40
2019-03-17T10:47:02.222Z,52.30
2019-03-17T10:49:07.379Z,51.70
2019-03-17T10:51:12.429Z,51.00
2019-03-17T10:53:17.328Z,50.10
2019-03-17T10:55:22.457Z,50.00
2019-03-17T10:57:27.388Z,49.70
2019-03-17T10:59:32.507Z,49.00
2019-03-17T11:01:37.448Z,48.90
2019-03-17T11:03:42.220Z,48.90
2019-03-17T11:05:47.115Z,49.10
2019-03-17T11:07:52.003Z,48.90
2019-03-17T11:09:58.327Z,48.90
2019-03-17T11:12:03.158Z,49.10
2019-03-17T11:14:08.151Z,49.10
2019-03-17T11:16:13.059Z,49.20
2019-03-17T11:18:17.967Z,49.40
2019-03-17T11:20:22.790Z,49.40
2019-03-17T11:22:27.664Z,49.50
2019-03-17T11:24:32.480Z,49.60
2019-03-17T11:26:37.363Z,49.70
2019-03-17T11:28:43.383Z,49.70
2019-03-17T11:30:57.996Z,49.70
2019-03-17T11:33:02.822Z,49.80
2019-03-17T11:35:07.774Z,49.80
2019-03-17T11:37:12.748Z,49.90
2019-03-17T11:39:17.726Z,49.80
2019-03-17T11:41:22.700Z,50.00
2019-03-17T11:43:27.601Z,49.90
2019-03-17T11:45:32.424Z,49.80
2019-03-17T11:47:37.322Z,49.70
2019-03-17T11:49:42.241Z,49.70
2019-03-17T11:51:47.100Z,49.70
2019-03-17T11:53:52.023Z,49.70
2019-03-17T11:55:56.949Z,49.70
2019-03-17T11:58:01.742Z,49.60
2019-03-17T12:00:07.962Z,49.60
2019-03-17T12:02:13.000Z,49.60
2019-03-17T12:04:17.926Z,49.60
2019-03-17T12:06:22.827Z,49.50
2019-03-17T12:08:27.544Z,49.40
2019-03-17T12:10:32.359Z,50.00
2019-03-17T12:12:37.208Z,49.40
2019-03-17T12:14:42.097Z,49.30
2019-03-17T12:16:46.922Z,49.20
2019-03-17T12:18:51.675Z,49.20
2019-03-17T12:20:56.676Z,49.10
2019-03-17T12:23:01.487Z,49.20
2019-03-17T12:25:06.849Z,49.10
2019-03-17T12:27:11.768Z,48.90
2019-03-17T12:29:16.589Z,48.90
2019-03-17T12:31:21.562Z,48.90
2019-03-17T12:33:26.384Z,48.70
2019-03-17T12:35:31.223Z,48.70
2019-03-17T12:37:36.080Z,48.70
2019-03-17T12:39:40.925Z,48.70
2019-03-17T12:41:46.766Z,48.60
2019-03-17T12:43:51.676Z,48.60
2019-03-17T12:45:56.540Z,49.10
2019-03-17T12:48:01.461Z,48.40
2019-03-17T12:50:06.450Z,48.30
2019-03-17T12:52:11.355Z,48.30
2019-03-17T12:54:16.230Z,48.20
2019-03-17T12:56:21.321Z,48.30
2019-03-17T12:58:26.036Z,48.20
2019-03-17T13:00:30.870Z,48.20
2019-03-17T13:02:35.651Z,48.00
2019-03-17T13:04:40.473Z,48.30
2019-03-17T13:06:45.409Z,48.00
2019-03-17T13:08:50.220Z,48.00
2019-03-17T13:10:55.221Z,48.00
2019-03-17T13:13:00.067Z,48.00
2019-03-17T13:15:05.186Z,48.00
2019-03-17T13:17:09.887Z,47.90
2019-03-17T13:19:14.635Z,47.90
2019-03-17T13:21:19.474Z,47.70
2019-03-17T13:23:24.370Z,47.90
2019-03-17T13:25:29.113Z,47.60
2019-03-17T13:27:33.952Z,47.70
2019-03-17T13:29:40.379Z,47.70
2019-03-17T13:31:45.203Z,47.50
2019-03-17T13:33:50.096Z,47.50
2019-03-17T13:35:54.805Z,47.50
2019-03-17T13:37:59.583Z,47.40
2019-03-17T13:40:05.412Z,47.40
2019-03-17T13:42:10.200Z,47.50
2019-03-17T13:44:15.086Z,47.60
2019-03-17T13:46:20.157Z,47.70
2019-03-17T13:48:25.353Z,47.60
2019-03-17T13:50:30.594Z,47.70
2019-03-17T13:52:36.335Z,47.70
2019-03-17T13:54:41.290Z,48.00
2019-03-17T13:56:46.319Z,47.90
2019-03-17T13:58:51.121Z,47.90
2019-03-17T14:00:56.064Z,48.00
2019-03-17T14:03:02.804Z,48.10
2019-03-17T14:05:08.844Z,48.10
2019-03-17T14:07:13.650Z,48.20
2019-03-17T14:09:19.505Z,48.00
2019-03-17T14:11:24.493Z,48.10
2019-03-17T14:13:29.415Z,48.20
2019-03-17T14:15:34.281Z,48.10
2019-03-17T14:17:39.463Z,48.10
2019-03-17T14:19:44.713Z,48.20
2019-03-17T14:21:49.472Z,48.20
2019-03-17T14:23:54.385Z,48.20
2019-03-17T14:25:59.413Z,48.20
2019-03-17T14:28:04.327Z,48.10
2019-03-17T14:30:11.396Z,48.00
2019-03-17T14:32:17.786Z,48.00
2019-03-17T14:34:22.705Z,47.90
2019-03-17T14:36:27.516Z,48.00
2019-03-17T14:38:32.338Z,48.20
2019-03-17T14:40:37.260Z,48.20
2019-03-17T14:42:42.146Z,48.30
2019-03-17T14:44:46.843Z,48.30
2019-03-17T14:46:51.754Z,48.30
2019-03-17T14:48:56.605Z,48.60
2019-03-17T14:51:01.412Z,48.50
2019-03-17T14:53:06.441Z,48.50
2019-03-17T14:55:11.466Z,48.50
2019-03-17T14:57:16.354Z,48.50
2019-03-17T14:59:21.058Z,48.50
2019-03-17T15:01:25.826Z,48.60
2019-03-17T15:03:30.771Z,48.80
2019-03-17T15:05:35.707Z,48.70
2019-03-17T15:07:40.562Z,48.60
2019-03-17T15:09:45.354Z,48.70
2019-03-17T15:11:50.244Z,48.70
2019-03-17T15:13:55.132Z,49.40
2019-03-17T15:16:03.081Z,48.80
2019-03-17T15:18:06.404Z,48.80
2019-03-17T15:20:13.641Z,48.80
2019-03-17T15:22:18.504Z,48.80
2019-03-17T15:24:23.393Z,48.80
2019-03-17T15:26:28.329Z,48.80
2019-03-17T15:28:33.169Z,48.80
2019-03-17T15:30:38.011Z,48.80
2019-03-17T15:32:42.874Z,48.80
2019-03-17T15:34:48.512Z,48.80
2019-03-17T15:36:54.645Z,48.80
2019-03-17T15:38:59.503Z,48.80
2019-03-17T15:41:17.952Z,48.80
2019-03-17T15:43:14.324Z,48.90
2019-03-17T15:45:19.237Z,48.80
2019-03-17T15:47:24.225Z,48.80
2019-03-17T15:49:29.023Z,48.90
2019-03-17T15:51:34.851Z,48.90
2019-03-17T15:53:39.667Z,48.90
2019-03-17T15:55:45.652Z,49.00
2019-03-17T15:57:50.580Z,49.00
2019-03-17T15:59:55.584Z,49.00
2019-03-17T16:02:03.398Z,49.10
2019-03-17T16:04:09.382Z,49.10
2019-03-17T16:06:14.283Z,49.20
2019-03-17T16:08:19.047Z,49.20
2019-03-17T16:10:23.828Z,49.20
2019-03-17T16:12:29.806Z,49.30
2019-03-17T16:14:35.870Z,49.40
2019-03-17T16:16:40.806Z,49.40
2019-03-17T16:18:47.726Z,49.40
2019-03-17T16:20:52.654Z,49.40
2019-03-17T16:22:58.889Z,49.50
2019-03-17T16:25:03.805Z,49.50
2019-03-17T16:27:08.763Z,49.60
2019-03-17T16:29:13.541Z,49.60
2019-03-17T16:31:18.584Z,49.60
2019-03-17T16:33:23.483Z,49.60
2019-03-17T16:35:28.402Z,49.60
2019-03-17T16:37:33.328Z,49.70
2019-03-17T16:39:38.384Z,49.70
2019-03-17T16:41:44.028Z,49.80
2019-03-17T16:43:49.033Z,49.80
2019-03-17T16:45:53.872Z,49.90
2019-03-17T16:47:58.924Z,49.80
2019-03-17T16:50:07.920Z,49.80
2019-03-17T16:52:12.889Z,49.90
2019-03-17T16:54:18.083Z,49.90
2019-03-17T16:56:29.575Z,50.00
2019-03-17T16:58:34.709Z,50.00
2019-03-17T17:00:39.856Z,50.00
2019-03-17T17:02:44.767Z,50.00
2019-03-17T17:04:49.728Z,50.00
2019-03-17T17:06:54.646Z,50.00
2019-03-17T17:08:59.584Z,50.10
2019-03-17T17:11:04.481Z,50.20
2019-03-17T17:13:09.385Z,50.10
2019-03-17T17:15:21.212Z,50.20
2019-03-17T17:17:26.046Z,50.20
2019-03-17T17:19:31.325Z,50.10
2019-03-17T17:21:36.254Z,50.10
2019-03-17T17:23:41.066Z,50.20
2019-03-17T17:25:45.966Z,50.10
2019-03-17T17:27:50.912Z,50.20
2019-03-17T17:29:55.884Z,50.20
2019-03-17T17:32:00.957Z,50.30
2019-03-17T17:34:05.880Z,50.20
2019-03-17T17:36:11.377Z,50.20
2019-03-17T17:38:16.277Z,50.30
2019-03-17T17:40:21.185Z,50.20
2019-03-17T17:42:26.111Z,50.20
2019-03-17T17:44:49.085Z,50.20
2019-03-17T17:46:58.248Z,50.10
2019-03-17T17:49:02.672Z,50.10
2019-03-17T17:51:07.721Z,50.20
2019-03-17T17:53:15.312Z,50.40
2019-03-17T17:55:22.000Z,51.40
2019-03-17T17:57:26.938Z,51.40
2019-03-17T17:59:31.792Z,51.80
2019-03-17T18:01:40.579Z,51.80
2019-03-17T18:03:51.586Z,51.80
2019-03-17T18:05:53.381Z,52.10
2019-03-17T18:07:58.235Z,52.30
2019-03-17T18:10:14.458Z,52.50
2019-03-17T18:12:21.248Z,52.30
2019-03-17T18:14:25.961Z,52.20
2019-03-17T18:16:30.818Z,52.00
2019-03-17T18:18:35.730Z,51.80
2019-03-17T18:20:41.264Z,52.40
2019-03-17T18:22:46.189Z,52.70
2019-03-17T18:24:51.052Z,52.80
2019-03-17T18:26:56.941Z,52.90
2019-03-17T18:29:02.943Z,52.40
2019-03-17T18:31:17.413Z,52.40
2019-03-17T18:33:29.017Z,52.70
2019-03-17T18:35:34.106Z,52.70
2019-03-17T18:37:40.144Z,52.60
2019-03-17T18:39:46.649Z,52.40
2019-03-17T18:41:51.501Z,52.50
2019-03-17T18:43:56.352Z,52.40
2019-03-17T18:46:03.612Z,52.80
2019-03-17T18:48:08.585Z,52.80
2019-03-17T18:50:20.065Z,53.10
2019-03-17T18:52:21.162Z,52.90
2019-03-17T18:54:26.714Z,53.70
2019-03-17T18:56:31.751Z,53.20
2019-03-17T18:58:41.357Z,53.40
2019-03-17T19:00:46.388Z,53.20
2019-03-17T19:02:51.365Z,53.30
2019-03-17T19:05:03.534Z,53.50
2019-03-17T19:07:08.536Z,54.20
2019-03-17T19:09:14.822Z,53.50
2019-03-17T19:11:20.946Z,53.70
2019-03-17T19:13:26.149Z,53.40
2019-03-17T19:15:31.155Z,53.40
2019-03-17T19:17:36.309Z,53.40
2019-03-17T19:19:41.284Z,53.50
2019-03-17T19:22:29.450Z,53.40
2019-03-17T19:24:44.749Z,53.30
2019-03-17T19:26:49.659Z,54.30
2019-03-17T19:29:22.494Z,53.80
2019-03-17T19:32:41.096Z,53.70
2019-03-17T19:34:54.656Z,53.70
2019-03-17T19:36:59.509Z,54.00
2019-03-17T19:39:31.368Z,54.10
2019-03-17T19:41:37.573Z,54.20
2019-03-17T19:43:42.623Z,54.40
2019-03-17T19:49:38.698Z,54.30
2019-03-17T19:51:46.626Z,54.10
2019-03-17T19:53:52.485Z,53.90
2019-03-17T19:55:58.904Z,54.00
2019-03-17T19:58:04.906Z,53.80
2019-03-17T20:00:13.013Z,53.90
2019-03-17T20:02:17.907Z,53.80
2019-03-17T20:04:30.724Z,54.10
2019-03-17T20:06:29.684Z,54.00
2019-03-17T20:08:34.533Z,54.20
2019-03-17T20:10:39.672Z,54.60
2019-03-17T20:12:47.091Z,54.70
2019-03-17T20:14:52.927Z,54.90
2019-03-17T20:16:57.901Z,55.10
2019-03-17T20:19:02.932Z,55.40
2019-03-17T20:21:10.242Z,55.30
2019-03-17T20:23:15.423Z,56.60
2019-03-17T20:25:25.168Z,56.80
2019-03-17T20:27:31.123Z,56.80
2019-03-17T20:29:36.650Z,57.00
2019-03-17T20:31:43.368Z,56.80
2019-03-17T20:33:48.564Z,56.80
2019-03-17T20:35:53.490Z,56.90
2019-03-17T20:37:58.619Z,57.10
2019-03-17T20:40:03.712Z,57.10
2019-03-17T20:42:08.684Z,57.10
2019-03-17T20:44:13.814Z,57.30
2019-03-17T20:46:19.975Z,57.30
2019-03-17T20:48:25.341Z,57.20
2019-03-17T20:50:30.341Z,58.10
2019-03-17T20:52:35.169Z,57.50
2019-03-17T20:54:40.067Z,57.80
2019-03-17T20:56:45.085Z,57.80
2019-03-17T20:58:54.767Z,57.90
2019-03-17T21:01:00.264Z,57.90
2019-03-17T21:03:05.210Z,57.90
2019-03-17T21:05:11.424Z,57.90
2019-03-17T21:07:16.643Z,57.90
2019-03-17T21:09:22.489Z,58.00
2019-03-17T21:11:27.383Z,58.40
2019-03-17T21:13:32.664Z,58.60
2019-03-17T21:15:37.631Z,58.60
2019-03-17T21:17:42.625Z,58.80
2019-03-17T21:19:47.398Z,58.70
2019-03-17T21:21:52.144Z,58.80
2019-03-17T21:23:57.666Z,58.70
2019-03-17T21:26:02.533Z,58.80
2019-03-17T21:28:07.798Z,58.80
2019-03-17T21:30:18.182Z,58.80
2019-03-17T21:32:23.021Z,58.80
2019-03-17T21:34:29.716Z,58.70
2019-03-17T21:36:37.346Z,58.70
2019-03-17T21:38:42.638Z,58.70
2019-03-17T21:41:01.656Z,58.60
2019-03-17T21:42:55.521Z,58.60
2019-03-17T21:45:00.609Z,58.60
2019-03-17T21:47:08.176Z,58.60
2019-03-17T21:49:12.991Z,58.60
2019-03-17T21:51:17.818Z,58.60
2019-03-17T21:53:22.878Z,58.60
2019-03-17T21:55:28.166Z,58.60
2019-03-17T21:57:33.188Z,58.50
2019-03-17T21:59:38.081Z,58.60
2019-03-17T22:01:43.002Z,58.60
2019-03-17T22:03:48.227Z,58.60
2019-03-17T22:05:53.845Z,58.60
2019-03-17T22:07:58.786Z,58.60
2019-03-17T22:10:06.142Z,58.60
2019-03-17T22:12:12.214Z,58.40
2019-03-17T22:14:19.285Z,58.30
2019-03-17T22:16:24.132Z,58.30
2019-03-17T22:18:29.197Z,58.30
2019-03-17T22:20:34.916Z,58.30
2019-03-17T22:22:39.884Z,58.40
2019-03-17T22:24:44.727Z,58.30
2019-03-17T22:26:50.899Z,58.30
2019-03-17T22:28:55.737Z,58.30
2019-03-17T22:31:00.619Z,58.30
2019-03-17T22:33:05.464Z,58.20
2019-03-17T22:35:10.622Z,58.10
2019-03-17T22:37:16.534Z,58.00
2019-03-17T22:39:21.355Z,58.20
2019-03-17T22:41:26.221Z,58.30
2019-03-17T22:43:32.890Z,58.30
2019-03-17T22:45:37.726Z,58.20
2019-03-17T22:47:42.680Z,58.30
2019-03-17T22:49:47.408Z,58.30
2019-03-17T22:51:52.256Z,58.30
2019-03-17T22:53:57.237Z,58.20
2019-03-17T22:56:02.075Z,58.10
2019-03-17T22:58:06.987Z,58.10
2019-03-17T23:00:14.301Z,58.20
2019-03-17T23:02:22.013Z,58.00
2019-03-17T23:04:27.014Z,58.00
2019-03-17T23:06:31.916Z,58.00
2019-03-17T23:08:37.130Z,58.00
2019-03-17T23:10:42.016Z,57.90
2019-03-17T23:12:47.928Z,57.90
2019-03-17T23:14:53.748Z,57.90
2019-03-17T23:16:58.769Z,57.90
2019-03-17T23:19:05.831Z,57.90
2019-03-17T23:21:11.785Z,57.90
2019-03-17T23:23:16.849Z,57.90
2019-03-17T23:25:21.791Z,57.90
2019-03-17T23:27:26.996Z,57.80
2019-03-17T23:29:31.908Z,57.80
2019-03-17T23:31:36.754Z,57.80
2019-03-17T23:33:41.983Z,57.80
2019-03-17T23:35:46.882Z,57.70
2019-03-17T23:37:52.812Z,57.70
2019-03-17T23:39:57.665Z,57.80
2019-03-17T23:42:02.535Z,57.70
2019-03-17T23:44:07.324Z,57.70
2019-03-17T23:46:12.586Z,57.60
2019-03-17T23:48:17.472Z,57.70
2019-03-17T23:50:22.336Z,57.70
2019-03-17T23:52:27.142Z,57.90
2019-03-17T23:54:32.809Z,57.70
2019-03-17T23:56:37.644Z,57.60
2019-03-17T23:58:44.395Z,57.60
